sensor_id;sensor_type;location;lat;lon;timestamp;pressure;altitude;pressure_sealevel;temperature;humidity
9474;BME280;8865;47.636;7.692;2024-01-15T00:00:24;97439.06;;;1.73;100.00
9474;BME280;8865;47.636;7.692;2024-01-15T00:02:50;97436.16;;;1.65;100.00
9474;BME280;8865;47.636;7.692;2024-01-15T00:05:16;97440.97;;;1.57;100.00
9474;BME280;8865;47.636;7.692;2024-01-15T00:07:42;97442.09;;;1.53;100.00
9474;BME280;8865;47.636;7.692;2024-01-15T00:10:08;97449.41;;;1.46;100.00
9474;BME280;8865;47.636;7.692;2024-01-15T00:12:34;97445.72;;;1.36;100.00
9474;BME280;8865;47.636;7.692;2024-01-15T00:15:00;97447.75;;;1.31;100.00
9474;BME280;8865;47.636;7.692;2024-01-15T00:17:26;97445.09;;;1.18;100.00
9474;BME280;8865;47.636;7.692;2024-01-15T00:19:53;97444.56;;;1.13;100.00
9474;BME280;8865;47.636;7.692;2024-01-15T00:22:19;97449.41;;;1.03;100.00
9474;BME280;8865;47.636;7.692;2024-01-15T00:24:45;97444.16;;;1.04;100.00
9474;BME280;8865;47.636;7.692;2024-01-15T00:27:11;97452.19;;;1.14;100.00
9474;BME280;8865;47.636;7.692;2024-01-15T00:29:37;97455.59;;;1.15;100.00
9474;BME280;8865;47.636;7.692;2024-01-15T00:32:04;97450.91;;;1.21;100.00
9474;BME280;8865;47.636;7.692;2024-01-15T00:34:30;97458.75;;;1.20;100.00
9474;BME280;8865;47.636;7.692;2024-01-15T00:36:56;97458.06;;;1.16;100.00
9474;BME280;8865;47.636;7.692;2024-01-15T00:39:22;97442.44;;;1.05;100.00
9474;BME280;8865;47.636;7.692;2024-01-15T00:41:48;97447.22;;;0.97;100.00
9474;BME280;8865;47.636;7.692;2024-01-15T00:44:14;97450.06;;;0.92;100.00
9474;BME280;8865;47.636;7.692;2024-01-15T00:46:44;97448.34;;;0.93;100.00
9474;BME280;8865;47.636;7.692;2024-01-15T00:49:12;97442.50;;;0.89;100.00
9474;BME280;8865;47.636;7.692;2024-01-15T00:51:39;97442.63;;;0.73;100.00
9474;BME280;8865;47.636;7.692;2024-01-15T00:54:06;97441.50;;;0.63;100.00
9474;BME280;8865;47.636;7.692;2024-01-15T00:56:32;97436.59;;;0.58;100.00
9474;BME280;8865;47.636;7.692;2024-01-15T00:58:58;97449.84;;;0.52;100.00
9474;BME280;8865;47.636;7.692;2024-01-15T01:01:24;97459.16;;;0.55;100.00
9474;BME280;8865;47.636;7.692;2024-01-15T01:03:50;97469.00;;;0.48;100.00
9474;BME280;8865;47.636;7.692;2024-01-15T01:06:16;97462.25;;;0.45;100.00
9474;BME280;8865;47.636;7.692;2024-01-15T01:08:42;97462.09;;;0.48;100.00
9474;BME280;8865;47.636;7.692;2024-01-15T01:11:13;97463.09;;;0.46;100.00
9474;BME280;8865;47.636;7.692;2024-01-15T01:13:39;97467.78;;;0.39;100.00
9474;BME280;8865;47.636;7.692;2024-01-15T01:16:05;97472.94;;;0.39;100.00
9474;BME280;8865;47.636;7.692;2024-01-15T01:18:31;97475.50;;;0.39;100.00
9474;BME280;8865;47.636;7.692;2024-01-15T01:20:57;97481.38;;;0.41;100.00
9474;BME280;8865;47.636;7.692;2024-01-15T01:23:23;97481.66;;;0.37;100.00
9474;BME280;8865;47.636;7.692;2024-01-15T01:25:49;97462.06;;;0.34;100.00
9474;BME280;8865;47.636;7.692;2024-01-15T01:28:15;97460.50;;;0.46;100.00
9474;BME280;8865;47.636;7.692;2024-01-15T01:30:41;97467.69;;;0.41;100.00
9474;BME280;8865;47.636;7.692;2024-01-15T01:33:07;97464.13;;;0.43;100.00
9474;BME280;8865;47.636;7.692;2024-01-15T01:35:33;97458.97;;;0.43;100.00
9474;BME280;8865;47.636;7.692;2024-01-15T01:37:59;97465.63;;;0.31;100.00
9474;BME280;8865;47.636;7.692;2024-01-15T01:40:25;97466.72;;;0.27;100.00
9474;BME280;8865;47.636;7.692;2024-01-15T01:42:51;97470.41;;;0.23;100.00
9474;BME280;8865;47.636;7.692;2024-01-15T01:45:17;97467.69;;;0.10;100.00
9474;BME280;8865;47.636;7.692;2024-01-15T01:47:44;97466.44;;;0.17;100.00
9474;BME280;8865;47.636;7.692;2024-01-15T01:50:10;97473.41;;;0.15;100.00
9474;BME280;8865;47.636;7.692;2024-01-15T01:52:36;97471.75;;;0.14;100.00
9474;BME280;8865;47.636;7.692;2024-01-15T01:55:03;97466.34;;;0.19;100.00
9474;BME280;8865;47.636;7.692;2024-01-15T01:57:30;97479.22;;;0.19;100.00
9474;BME280;8865;47.636;7.692;2024-01-15T01:59:58;97479.56;;;0.13;100.00
9474;BME280;8865;47.636;7.692;2024-01-15T02:02:25;97476.69;;;0.03;100.00
9474;BME280;8865;47.636;7.692;2024-01-15T02:04:52;97477.84;;;-0.03;100.00
9474;BME280;8865;47.636;7.692;2024-01-15T02:07:18;97467.22;;;-0.12;100.00
9474;BME280;8865;47.636;7.692;2024-01-15T02:09:47;97460.72;;;-0.04;100.00
9474;BME280;8865;47.636;7.692;2024-01-15T02:12:13;97455.72;;;-0.21;100.00
9474;BME280;8865;47.636;7.692;2024-01-15T02:14:39;97455.38;;;-0.15;100.00
9474;BME280;8865;47.636;7.692;2024-01-15T02:17:05;97454.53;;;-0.31;100.00
9474;BME280;8865;47.636;7.692;2024-01-15T02:19:32;97457.78;;;-0.44;100.00
9474;BME280;8865;47.636;7.692;2024-01-15T02:21:58;97462.03;;;-0.43;100.00
9474;BME280;8865;47.636;7.692;2024-01-15T02:24:24;97460.88;;;-0.53;100.00
9474;BME280;8865;47.636;7.692;2024-01-15T02:26:50;97464.50;;;-0.57;100.00
9474;BME280;8865;47.636;7.692;2024-01-15T02:29:17;97454.41;;;-0.44;100.00
9474;BME280;8865;47.636;7.692;2024-01-15T02:31:43;97442.44;;;-0.61;100.00
9474;BME280;8865;47.636;7.692;2024-01-15T02:34:10;97449.34;;;-0.46;100.00
9474;BME280;8865;47.636;7.692;2024-01-15T02:36:36;97443.59;;;-0.35;100.00
9474;BME280;8865;47.636;7.692;2024-01-15T02:39:02;97440.94;;;-0.33;100.00
9474;BME280;8865;47.636;7.692;2024-01-15T02:41:28;97444.59;;;-0.38;100.00
9474;BME280;8865;47.636;7.692;2024-01-15T02:43:54;97441.94;;;-0.36;100.00
9474;BME280;8865;47.636;7.692;2024-01-15T02:46:20;97437.94;;;-0.42;100.00
9474;BME280;8865;47.636;7.692;2024-01-15T02:48:46;97439.31;;;-0.50;100.00
9474;BME280;8865;47.636;7.692;2024-01-15T02:51:12;97440.84;;;-0.48;100.00
9474;BME280;8865;47.636;7.692;2024-01-15T02:53:38;97443.25;;;-0.45;100.00
9474;BME280;8865;47.636;7.692;2024-01-15T02:56:05;97444.75;;;-0.41;100.00
9474;BME280;8865;47.636;7.692;2024-01-15T02:58:32;97441.44;;;-0.43;100.00
9474;BME280;8865;47.636;7.692;2024-01-15T03:00:58;97445.91;;;-0.46;100.00
9474;BME280;8865;47.636;7.692;2024-01-15T03:03:24;97435.78;;;-0.49;100.00
9474;BME280;8865;47.636;7.692;2024-01-15T03:05:50;97431.00;;;-0.40;100.00
9474;BME280;8865;47.636;7.692;2024-01-15T03:08:16;97435.72;;;-0.32;100.00
9474;BME280;8865;47.636;7.692;2024-01-15T03:10:43;97431.13;;;-0.27;100.00
9474;BME280;8865;47.636;7.692;2024-01-15T03:13:09;97433.09;;;-0.16;100.00
9474;BME280;8865;47.636;7.692;2024-01-15T03:15:35;97432.19;;;-0.15;100.00
9474;BME280;8865;47.636;7.692;2024-01-15T03:18:01;97422.66;;;-0.13;100.00
9474;BME280;8865;47.636;7.692;2024-01-15T03:20:27;97428.19;;;-0.05;100.00
9474;BME280;8865;47.636;7.692;2024-01-15T03:22:53;97416.25;;;-0.06;100.00
9474;BME280;8865;47.636;7.692;2024-01-15T03:25:20;97415.00;;;0.02;100.00
9474;BME280;8865;47.636;7.692;2024-01-15T03:27:46;97412.53;;;-0.16;100.00
9474;BME280;8865;47.636;7.692;2024-01-15T03:30:12;97415.00;;;-0.14;100.00
9474;BME280;8865;47.636;7.692;2024-01-15T03:32:39;97416.50;;;-0.10;100.00
9474;BME280;8865;47.636;7.692;2024-01-15T03:35:05;97415.31;;;-0.05;100.00
9474;BME280;8865;47.636;7.692;2024-01-15T03:37:31;97409.84;;;0.02;100.00
9474;BME280;8865;47.636;7.692;2024-01-15T03:39:57;97403.03;;;0.01;100.00
9474;BME280;8865;47.636;7.692;2024-01-15T03:42:23;97395.47;;;-0.03;100.00
9474;BME280;8865;47.636;7.692;2024-01-15T03:44:49;97393.28;;;0.06;100.00
9474;BME280;8865;47.636;7.692;2024-01-15T03:47:15;97400.97;;;-0.09;100.00
9474;BME280;8865;47.636;7.692;2024-01-15T03:49:42;97398.41;;;-0.09;100.00
9474;BME280;8865;47.636;7.692;2024-01-15T03:52:08;97391.31;;;-0.05;100.00
9474;BME280;8865;47.636;7.692;2024-01-15T03:54:34;97388.03;;;0.07;100.00
9474;BME280;8865;47.636;7.692;2024-01-15T03:57:00;97397.53;;;0.07;100.00
9474;BME280;8865;47.636;7.692;2024-01-15T03:59:26;97397.34;;;0.10;100.00
9474;BME280;8865;47.636;7.692;2024-01-15T04:01:52;97404.81;;;0.14;100.00
9474;BME280;8865;47.636;7.692;2024-01-15T04:04:18;97403.13;;;0.13;100.00
9474;BME280;8865;47.636;7.692;2024-01-15T04:06:44;97398.00;;;0.13;100.00
9474;BME280;8865;47.636;7.692;2024-01-15T04:09:12;97399.56;;;0.16;100.00
9474;BME280;8865;47.636;7.692;2024-01-15T04:11:39;97402.69;;;0.21;100.00
9474;BME280;8865;47.636;7.692;2024-01-15T04:14:06;97406.22;;;0.20;100.00
9474;BME280;8865;47.636;7.692;2024-01-15T04:16:31;97398.31;;;0.23;100.00
9474;BME280;8865;47.636;7.692;2024-01-15T04:18:58;97390.22;;;0.29;100.00
9474;BME280;8865;47.636;7.692;2024-01-15T04:21:24;97387.91;;;0.25;100.00
9474;BME280;8865;47.636;7.692;2024-01-15T04:23:50;97388.72;;;0.25;100.00
9474;BME280;8865;47.636;7.692;2024-01-15T04:26:16;97395.50;;;0.12;100.00
9474;BME280;8865;47.636;7.692;2024-01-15T04:28:42;97389.91;;;0.20;100.00
9474;BME280;8865;47.636;7.692;2024-01-15T04:31:08;97391.22;;;0.27;100.00
9474;BME280;8865;47.636;7.692;2024-01-15T04:33:34;97386.72;;;0.30;100.00
9474;BME280;8865;47.636;7.692;2024-01-15T04:36:06;97386.44;;;0.35;100.00
9474;BME280;8865;47.636;7.692;2024-01-15T04:38:32;97376.97;;;0.35;100.00
9474;BME280;8865;47.636;7.692;2024-01-15T04:40:59;97384.44;;;0.40;100.00
9474;BME280;8865;47.636;7.692;2024-01-15T04:43:25;97382.88;;;0.38;100.00
9474;BME280;8865;47.636;7.692;2024-01-15T04:45:51;97379.94;;;0.44;100.00
9474;BME280;8865;47.636;7.692;2024-01-15T04:48:17;97376.41;;;0.30;100.00
9474;BME280;8865;47.636;7.692;2024-01-15T04:50:43;97375.88;;;0.40;100.00
9474;BME280;8865;47.636;7.692;2024-01-15T04:53:09;97376.63;;;0.42;100.00
9474;BME280;8865;47.636;7.692;2024-01-15T04:55:35;97391.03;;;0.44;100.00
9474;BME280;8865;47.636;7.692;2024-01-15T04:58:01;97383.13;;;0.47;100.00
9474;BME280;8865;47.636;7.692;2024-01-15T05:00:27;97385.25;;;0.55;100.00
9474;BME280;8865;47.636;7.692;2024-01-15T05:02:53;97383.41;;;0.43;100.00
9474;BME280;8865;47.636;7.692;2024-01-15T05:05:19;97376.53;;;0.43;100.00
9474;BME280;8865;47.636;7.692;2024-01-15T05:07:45;97366.88;;;0.47;100.00
9474;BME280;8865;47.636;7.692;2024-01-15T05:10:11;97377.34;;;0.44;100.00
9474;BME280;8865;47.636;7.692;2024-01-15T05:12:37;97381.28;;;0.35;100.00
9474;BME280;8865;47.636;7.692;2024-01-15T05:15:04;97381.38;;;0.33;100.00
9474;BME280;8865;47.636;7.692;2024-01-15T05:17:30;97383.38;;;0.14;100.00
9474;BME280;8865;47.636;7.692;2024-01-15T05:19:56;97383.84;;;0.21;100.00
9474;BME280;8865;47.636;7.692;2024-01-15T05:22:22;97383.41;;;0.28;100.00
9474;BME280;8865;47.636;7.692;2024-01-15T05:24:50;97383.03;;;0.34;100.00
9474;BME280;8865;47.636;7.692;2024-01-15T05:27:16;97387.47;;;0.47;100.00
9474;BME280;8865;47.636;7.692;2024-01-15T05:29:42;97377.44;;;0.57;100.00
9474;BME280;8865;47.636;7.692;2024-01-15T05:32:08;97382.03;;;0.51;100.00
9474;BME280;8865;47.636;7.692;2024-01-15T05:34:34;97381.41;;;0.48;100.00
9474;BME280;8865;47.636;7.692;2024-01-15T05:37:00;97382.50;;;0.44;100.00
9474;BME280;8865;47.636;7.692;2024-01-15T05:39:26;97387.47;;;0.47;100.00
9474;BME280;8865;47.636;7.692;2024-01-15T05:41:52;97388.88;;;0.52;100.00
9474;BME280;8865;47.636;7.692;2024-01-15T05:44:18;97371.19;;;0.61;100.00
9474;BME280;8865;47.636;7.692;2024-01-15T05:46:44;97375.03;;;0.39;100.00
9474;BME280;8865;47.636;7.692;2024-01-15T05:49:10;97376.50;;;0.29;100.00
9474;BME280;8865;47.636;7.692;2024-01-15T05:51:36;97384.81;;;0.34;100.00
9474;BME280;8865;47.636;7.692;2024-01-15T05:54:02;97383.41;;;0.43;100.00
9474;BME280;8865;47.636;7.692;2024-01-15T05:56:28;97373.47;;;0.37;100.00
9474;BME280;8865;47.636;7.692;2024-01-15T05:58:55;97378.53;;;0.38;100.00
9474;BME280;8865;47.636;7.692;2024-01-15T06:01:21;97375.13;;;0.38;100.00
9474;BME280;8865;47.636;7.692;2024-01-15T06:03:47;97373.88;;;0.45;100.00
9474;BME280;8865;47.636;7.692;2024-01-15T06:06:13;97368.25;;;0.52;100.00
9474;BME280;8865;47.636;7.692;2024-01-15T06:08:39;97372.84;;;0.47;100.00
9474;BME280;8865;47.636;7.692;2024-01-15T06:11:06;97366.13;;;0.59;100.00
9474;BME280;8865;47.636;7.692;2024-01-15T06:13:32;97367.88;;;0.59;100.00
9474;BME280;8865;47.636;7.692;2024-01-15T06:15:58;97378.47;;;0.54;100.00
9474;BME280;8865;47.636;7.692;2024-01-15T06:18:24;97376.53;;;0.58;100.00
9474;BME280;8865;47.636;7.692;2024-01-15T06:20:51;97383.25;;;0.60;100.00
9474;BME280;8865;47.636;7.692;2024-01-15T06:23:17;97381.03;;;0.54;100.00
9474;BME280;8865;47.636;7.692;2024-01-15T06:25:43;97380.69;;;0.60;100.00
9474;BME280;8865;47.636;7.692;2024-01-15T06:28:09;97372.94;;;0.60;100.00
9474;BME280;8865;47.636;7.692;2024-01-15T06:30:35;97375.34;;;0.63;100.00
9474;BME280;8865;47.636;7.692;2024-01-15T06:33:01;97383.97;;;0.62;100.00
9474;BME280;8865;47.636;7.692;2024-01-15T06:35:27;97381.13;;;0.67;100.00
9474;BME280;8865;47.636;7.692;2024-01-15T06:37:53;97379.75;;;0.76;100.00
9474;BME280;8865;47.636;7.692;2024-01-15T06:40:19;97368.50;;;0.77;100.00
9474;BME280;8865;47.636;7.692;2024-01-15T06:42:45;97377.34;;;0.87;100.00
9474;BME280;8865;47.636;7.692;2024-01-15T06:45:11;97364.34;;;0.88;100.00
9474;BME280;8865;47.636;7.692;2024-01-15T06:47:38;97362.78;;;0.86;100.00
9474;BME280;8865;47.636;7.692;2024-01-15T06:50:04;97361.44;;;0.80;100.00
9474;BME280;8865;47.636;7.692;2024-01-15T06:52:32;97351.75;;;0.84;100.00
9474;BME280;8865;47.636;7.692;2024-01-15T06:54:58;97348.06;;;0.88;100.00
9474;BME280;8865;47.636;7.692;2024-01-15T06:57:24;97361.97;;;0.85;100.00
9474;BME280;8865;47.636;7.692;2024-01-15T06:59:50;97359.75;;;0.79;100.00
9474;BME280;8865;47.636;7.692;2024-01-15T07:02:16;97356.19;;;0.67;100.00
9474;BME280;8865;47.636;7.692;2024-01-15T07:04:42;97359.88;;;0.63;100.00
9474;BME280;8865;47.636;7.692;2024-01-15T07:07:08;97355.81;;;0.59;100.00
9474;BME280;8865;47.636;7.692;2024-01-15T07:09:34;97360.44;;;0.54;100.00
9474;BME280;8865;47.636;7.692;2024-01-15T07:12:01;97363.72;;;0.56;100.00
9474;BME280;8865;47.636;7.692;2024-01-15T07:14:27;97365.84;;;0.64;100.00
9474;BME280;8865;47.636;7.692;2024-01-15T07:16:53;97369.81;;;0.69;100.00
9474;BME280;8865;47.636;7.692;2024-01-15T07:19:20;97377.72;;;0.81;100.00
9474;BME280;8865;47.636;7.692;2024-01-15T07:21:46;97377.81;;;0.79;100.00
9474;BME280;8865;47.636;7.692;2024-01-15T07:24:12;97379.47;;;0.80;100.00
9474;BME280;8865;47.636;7.692;2024-01-15T07:26:39;97383.25;;;0.75;100.00
9474;BME280;8865;47.636;7.692;2024-01-15T07:29:05;97380.66;;;0.75;100.00
9474;BME280;8865;47.636;7.692;2024-01-15T07:31:31;97372.13;;;0.74;100.00
9474;BME280;8865;47.636;7.692;2024-01-15T07:33:58;97364.72;;;0.82;100.00
9474;BME280;8865;47.636;7.692;2024-01-15T07:36:25;97366.84;;;0.90;100.00
9474;BME280;8865;47.636;7.692;2024-01-15T07:38:51;97357.53;;;1.02;100.00
9474;BME280;8865;47.636;7.692;2024-01-15T07:41:17;97362.13;;;0.97;100.00
9474;BME280;8865;47.636;7.692;2024-01-15T07:43:43;97355.78;;;1.02;100.00
9474;BME280;8865;47.636;7.692;2024-01-15T07:46:09;97354.09;;;1.01;100.00
9474;BME280;8865;47.636;7.692;2024-01-15T07:48:35;97358.06;;;1.07;100.00
9474;BME280;8865;47.636;7.692;2024-01-15T07:51:01;97379.88;;;1.16;100.00
9474;BME280;8865;47.636;7.692;2024-01-15T07:53:27;97370.47;;;1.15;100.00
9474;BME280;8865;47.636;7.692;2024-01-15T07:55:53;97367.53;;;1.21;100.00
9474;BME280;8865;47.636;7.692;2024-01-15T07:58:20;97360.34;;;1.26;100.00
9474;BME280;8865;47.636;7.692;2024-01-15T08:00:46;97349.75;;;1.31;100.00
9474;BME280;8865;47.636;7.692;2024-01-15T08:03:12;97345.59;;;1.28;100.00
9474;BME280;8865;47.636;7.692;2024-01-15T08:05:38;97347.25;;;1.29;100.00
9474;BME280;8865;47.636;7.692;2024-01-15T08:08:05;97342.00;;;1.31;100.00
9474;BME280;8865;47.636;7.692;2024-01-15T08:10:31;97347.06;;;1.32;100.00
9474;BME280;8865;47.636;7.692;2024-01-15T08:12:57;97348.13;;;1.42;100.00
9474;BME280;8865;47.636;7.692;2024-01-15T08:15:23;97347.81;;;1.47;100.00
9474;BME280;8865;47.636;7.692;2024-01-15T08:17:49;97346.13;;;1.60;100.00
9474;BME280;8865;47.636;7.692;2024-01-15T08:20:16;97355.44;;;1.76;100.00
9474;BME280;8865;47.636;7.692;2024-01-15T08:22:42;97355.34;;;1.77;100.00
9474;BME280;8865;47.636;7.692;2024-01-15T08:25:09;97350.41;;;1.87;100.00
9474;BME280;8865;47.636;7.692;2024-01-15T08:27:35;97359.00;;;2.01;100.00
9474;BME280;8865;47.636;7.692;2024-01-15T08:30:00;97347.97;;;2.11;100.00
9474;BME280;8865;47.636;7.692;2024-01-15T08:32:27;97351.56;;;2.09;100.00
9474;BME280;8865;47.636;7.692;2024-01-15T08:34:54;97358.03;;;1.89;100.00
9474;BME280;8865;47.636;7.692;2024-01-15T08:37:20;97353.09;;;1.86;100.00
9474;BME280;8865;47.636;7.692;2024-01-15T08:39:46;97358.34;;;1.84;100.00
9474;BME280;8865;47.636;7.692;2024-01-15T08:42:12;97356.50;;;1.86;100.00
9474;BME280;8865;47.636;7.692;2024-01-15T08:44:38;97344.41;;;1.87;100.00
9474;BME280;8865;47.636;7.692;2024-01-15T08:47:06;97348.25;;;1.94;100.00
9474;BME280;8865;47.636;7.692;2024-01-15T08:49:32;97352.19;;;2.00;100.00
9474;BME280;8865;47.636;7.692;2024-01-15T08:51:58;97342.28;;;2.06;100.00
9474;BME280;8865;47.636;7.692;2024-01-15T08:54:25;97340.84;;;2.15;100.00
9474;BME280;8865;47.636;7.692;2024-01-15T08:56:51;97336.41;;;2.30;100.00
9474;BME280;8865;47.636;7.692;2024-01-15T08:59:17;97340.53;;;2.45;100.00
9474;BME280;8865;47.636;7.692;2024-01-15T09:01:50;97338.28;;;2.54;100.00
9474;BME280;8865;47.636;7.692;2024-01-15T09:04:16;97331.94;;;2.71;100.00
9474;BME280;8865;47.636;7.692;2024-01-15T09:06:45;97330.03;;;2.85;100.00
9474;BME280;8865;47.636;7.692;2024-01-15T09:09:11;97328.03;;;3.02;100.00
9474;BME280;8865;47.636;7.692;2024-01-15T09:11:38;97323.88;;;3.12;100.00
9474;BME280;8865;47.636;7.692;2024-01-15T09:14:04;97316.22;;;3.35;100.00
9474;BME280;8865;47.636;7.692;2024-01-15T09:16:30;97320.22;;;3.63;100.00
9474;BME280;8865;47.636;7.692;2024-01-15T09:18:55;97317.09;;;3.82;100.00
9474;BME280;8865;47.636;7.692;2024-01-15T09:21:24;97312.91;;;3.92;100.00
9474;BME280;8865;47.636;7.692;2024-01-15T09:23:51;97308.75;;;3.90;100.00
9474;BME280;8865;47.636;7.692;2024-01-15T09:26:17;97300.19;;;3.89;100.00
9474;BME280;8865;47.636;7.692;2024-01-15T09:28:43;97304.56;;;4.00;100.00
9474;BME280;8865;47.636;7.692;2024-01-15T09:31:09;97306.81;;;4.05;100.00
9474;BME280;8865;47.636;7.692;2024-01-15T09:33:35;97302.22;;;4.08;100.00
9474;BME280;8865;47.636;7.692;2024-01-15T09:36:04;97296.31;;;4.06;100.00
9474;BME280;8865;47.636;7.692;2024-01-15T09:38:31;97281.59;;;4.07;100.00
9474;BME280;8865;47.636;7.692;2024-01-15T09:40:57;97279.00;;;4.07;100.00
9474;BME280;8865;47.636;7.692;2024-01-15T09:43:24;97275.00;;;4.03;100.00
9474;BME280;8865;47.636;7.692;2024-01-15T09:45:50;97279.56;;;3.99;100.00
9474;BME280;8865;47.636;7.692;2024-01-15T09:48:17;97281.25;;;4.00;100.00
9474;BME280;8865;47.636;7.692;2024-01-15T09:50:43;97283.25;;;4.08;100.00
9474;BME280;8865;47.636;7.692;2024-01-15T09:53:09;97284.91;;;4.09;100.00
9474;BME280;8865;47.636;7.692;2024-01-15T09:55:39;97286.44;;;4.11;100.00
9474;BME280;8865;47.636;7.692;2024-01-15T09:58:05;97282.44;;;4.07;100.00
9474;BME280;8865;47.636;7.692;2024-01-15T10:00:33;97278.06;;;4.08;100.00
9474;BME280;8865;47.636;7.692;2024-01-15T10:02:59;97278.66;;;4.11;100.00
9474;BME280;8865;47.636;7.692;2024-01-15T10:05:28;97275.47;;;4.08;100.00
9474;BME280;8865;47.636;7.692;2024-01-15T10:07:56;97277.03;;;4.10;100.00
9474;BME280;8865;47.636;7.692;2024-01-15T10:10:23;97272.31;;;4.16;100.00
9474;BME280;8865;47.636;7.692;2024-01-15T10:12:49;97270.09;;;4.22;100.00
9474;BME280;8865;47.636;7.692;2024-01-15T10:15:16;97264.06;;;4.22;100.00
9474;BME280;8865;47.636;7.692;2024-01-15T10:17:43;97265.84;;;4.21;100.00
9474;BME280;8865;47.636;7.692;2024-01-15T10:20:10;97263.59;;;4.28;100.00
9474;BME280;8865;47.636;7.692;2024-01-15T10:22:40;97262.78;;;4.27;100.00
9474;BME280;8865;47.636;7.692;2024-01-15T10:25:10;97267.63;;;4.32;100.00
9474;BME280;8865;47.636;7.692;2024-01-15T10:27:36;97264.09;;;4.33;100.00
9474;BME280;8865;47.636;7.692;2024-01-15T10:30:03;97258.19;;;4.31;100.00
9474;BME280;8865;47.636;7.692;2024-01-15T10:32:29;97272.09;;;4.30;100.00
9474;BME280;8865;47.636;7.692;2024-01-15T10:34:55;97271.88;;;4.33;100.00
9474;BME280;8865;47.636;7.692;2024-01-15T10:37:21;97267.84;;;4.29;100.00
9474;BME280;8865;47.636;7.692;2024-01-15T10:39:49;97262.75;;;4.16;100.00
9474;BME280;8865;47.636;7.692;2024-01-15T10:42:15;97257.94;;;4.11;100.00
9474;BME280;8865;47.636;7.692;2024-01-15T10:44:43;97258.38;;;4.05;100.00
9474;BME280;8865;47.636;7.692;2024-01-15T10:47:10;97261.72;;;4.07;100.00
9474;BME280;8865;47.636;7.692;2024-01-15T10:49:37;97272.44;;;4.03;100.00
9474;BME280;8865;47.636;7.692;2024-01-15T10:52:03;97261.03;;;3.70;100.00
9474;BME280;8865;47.636;7.692;2024-01-15T10:54:30;97266.44;;;3.67;100.00
9474;BME280;8865;47.636;7.692;2024-01-15T10:56:56;97267.13;;;3.57;100.00
9474;BME280;8865;47.636;7.692;2024-01-15T10:59:22;97261.03;;;3.58;100.00
9474;BME280;8865;47.636;7.692;2024-01-15T11:01:49;97266.53;;;3.54;100.00
9474;BME280;8865;47.636;7.692;2024-01-15T11:04:20;97263.50;;;3.60;100.00
9474;BME280;8865;47.636;7.692;2024-01-15T11:06:50;97260.44;;;3.55;100.00
9474;BME280;8865;47.636;7.692;2024-01-15T11:09:16;97259.00;;;3.27;100.00
9474;BME280;8865;47.636;7.692;2024-01-15T11:11:45;97268.25;;;3.42;100.00
9474;BME280;8865;47.636;7.692;2024-01-15T11:15:00;97273.09;;;3.47;100.00
9474;BME280;8865;47.636;7.692;2024-01-15T11:17:23;97272.59;;;3.42;100.00
9474;BME280;8865;47.636;7.692;2024-01-15T11:19:50;97278.88;;;3.50;100.00
9474;BME280;8865;47.636;7.692;2024-01-15T11:25:13;97284.66;;;3.30;100.00
9474;BME280;8865;47.636;7.692;2024-01-15T11:27:44;97283.03;;;3.29;100.00
9474;BME280;8865;47.636;7.692;2024-01-15T11:30:11;97280.94;;;3.34;100.00
9474;BME280;8865;47.636;7.692;2024-01-15T11:32:38;97270.13;;;3.16;100.00
9474;BME280;8865;47.636;7.692;2024-01-15T11:35:07;97264.06;;;3.04;100.00
9474;BME280;8865;47.636;7.692;2024-01-15T11:40:22;97279.69;;;3.02;100.00
9474;BME280;8865;47.636;7.692;2024-01-15T11:42:49;97278.66;;;3.05;100.00
9474;BME280;8865;47.636;7.692;2024-01-15T11:45:18;97284.84;;;3.15;100.00
9474;BME280;8865;47.636;7.692;2024-01-15T11:50:33;97284.44;;;3.33;100.00
9474;BME280;8865;47.636;7.692;2024-01-15T11:53:01;97282.59;;;3.35;100.00
9474;BME280;8865;47.636;7.692;2024-01-15T11:55:37;97284.84;;;3.39;100.00
9474;BME280;8865;47.636;7.692;2024-01-15T11:58:13;97276.84;;;3.43;100.00
9474;BME280;8865;47.636;7.692;2024-01-15T12:00:40;97266.31;;;3.33;100.00
9474;BME280;8865;47.636;7.692;2024-01-15T12:03:08;97258.47;;;3.10;100.00
9474;BME280;8865;47.636;7.692;2024-01-15T12:05:37;97274.47;;;2.91;100.00
9474;BME280;8865;47.636;7.692;2024-01-15T12:08:03;97288.13;;;2.93;100.00
9474;BME280;8865;47.636;7.692;2024-01-15T12:10:40;97275.16;;;2.69;100.00
9474;BME280;8865;47.636;7.692;2024-01-15T12:13:13;97283.34;;;2.63;100.00
9474;BME280;8865;47.636;7.692;2024-01-15T12:15:41;97284.72;;;2.43;100.00
9474;BME280;8865;47.636;7.692;2024-01-15T12:18:08;97283.56;;;2.47;100.00
9474;BME280;8865;47.636;7.692;2024-01-15T12:20:35;97279.97;;;2.49;100.00
9474;BME280;8865;47.636;7.692;2024-01-15T12:23:02;97286.66;;;2.65;100.00
9474;BME280;8865;47.636;7.692;2024-01-15T12:25:32;97293.38;;;2.55;100.00
9474;BME280;8865;47.636;7.692;2024-01-15T12:28:00;97286.66;;;2.65;100.00
9474;BME280;8865;47.636;7.692;2024-01-15T12:30:28;97286.47;;;2.42;100.00
9474;BME280;8865;47.636;7.692;2024-01-15T12:32:55;97278.34;;;2.23;100.00
9474;BME280;8865;47.636;7.692;2024-01-15T12:35:21;97274.91;;;2.48;100.00
9474;BME280;8865;47.636;7.692;2024-01-15T12:37:47;97272.34;;;2.35;100.00
9474;BME280;8865;47.636;7.692;2024-01-15T12:40:13;97272.66;;;2.30;100.00
9474;BME280;8865;47.636;7.692;2024-01-15T12:42:44;97275.00;;;2.46;100.00
9474;BME280;8865;47.636;7.692;2024-01-15T12:45:11;97263.31;;;2.41;100.00
9474;BME280;8865;47.636;7.692;2024-01-15T12:47:40;97278.09;;;2.52;100.00
9474;BME280;8865;47.636;7.692;2024-01-15T12:50:11;97277.22;;;2.64;100.00
9474;BME280;8865;47.636;7.692;2024-01-15T12:52:40;97270.81;;;2.70;100.00
9474;BME280;8865;47.636;7.692;2024-01-15T12:55:08;97272.88;;;2.77;100.00
9474;BME280;8865;47.636;7.692;2024-01-15T12:57:34;97274.97;;;2.72;100.00
9474;BME280;8865;47.636;7.692;2024-01-15T13:00:01;97269.78;;;2.72;100.00
9474;BME280;8865;47.636;7.692;2024-01-15T13:02:27;97273.69;;;2.78;100.00
9474;BME280;8865;47.636;7.692;2024-01-15T13:04:53;97259.88;;;2.66;100.00
9474;BME280;8865;47.636;7.692;2024-01-15T13:07:20;97267.63;;;2.66;100.00
9474;BME280;8865;47.636;7.692;2024-01-15T13:09:46;97259.34;;;2.74;100.00
9474;BME280;8865;47.636;7.692;2024-01-15T13:12:12;97258.47;;;2.86;100.00
9474;BME280;8865;47.636;7.692;2024-01-15T13:14:38;97262.88;;;2.60;100.00
9474;BME280;8865;47.636;7.692;2024-01-15T13:17:04;97272.06;;;2.77;100.00
9474;BME280;8865;47.636;7.692;2024-01-15T13:19:30;97272.72;;;2.92;100.00
9474;BME280;8865;47.636;7.692;2024-01-15T13:21:56;97277.06;;;2.91;100.00
9474;BME280;8865;47.636;7.692;2024-01-15T13:24:24;97283.56;;;2.97;100.00